x

North Equatorial One- 470 Nm East Of Martinique (41040) Wave Buoy

8:50am - Sat 26th Jul 2014 All times are UTC.

  • Sig Wave height 6.9ft
  • Swell Direction
  • Peak Period 8s
  • Average Period 6s
  • Wind
    22mph, 27mph gusts
  • Sea Temp 81°f
  • Air Temp 80°f
  • Sea Pressure 1013.7mb

More Historic Weather Station data

Upgrade to MSW Pro to gain access to the past 30 days of data for over 8000 Wavebouys and Weather Stations around the globe.

Join Pro

Comparision Forecast

View Surf forecast
   
Sat 07/26 8:50am 7ft 8s 6s 22 27 mph 1013.7mb 81f 80f
7:50am 7ft 8s 6s 22 27 mph 1013.5mb 81f 80f
6:50am 7ft 8s 6s 20 22 mph 1014.1mb 81f 80f
5:50am 7ft 8s 6s 18 22 mph 1014.7mb 81f 80f
4:50am 6.5ft 8s 6s 18 20 mph 1015.3mb 81f 80f
3:50am 6.5ft 8s 6s 18 20 mph 1016.1mb 81f 80f
2:50am 7ft 8s 6s 18 22 mph 1017.1mb 81f 80f
1:50am 7ft 8s 6s 20 22 mph 1017.1mb 81f 81f
12:50am 7ft 8s 6s 20 25 mph 1016.5mb 81f 81f
Fri 07/25 11:50pm 7ft 8s 6s 22 27 mph 1016.1mb 81f 81f
10:50pm 7ft 8s 6s 22 25 mph 1015.5mb 81f 81f
9:50pm 7ft 8s 6s 20 25 mph 1014.7mb 81f 80f
8:50pm 7ft 8s 6s 22 25 mph 1014.5mb 81f 81f
7:50pm 6.5ft 8s 6s 22 25 mph 1014.4mb 81f 81f
6:50pm 7ft 8s 6s 22 25 mph 1014.8mb 81f 81f
5:50pm 6.5ft 8s 6s 20 27 mph 1015.3mb 81f 81f
4:50pm 7.5ft 8s 6s 20 22 mph 1015.9mb 81f 81f
3:50pm 7ft 7s 6s 22 27 mph 1016.5mb 81f 81f
2:50pm 7ft 8s 5s 22 29 mph 1016.6mb 81f 81f
1:50pm 7ft 8s 6s 22 27 mph 1017mb 81f 81f
12:50pm 7.5ft 8s 6s 25 29 mph 1017mb 81f 81f
11:50am 7.5ft 7s 6s 25 29 mph 1016.9mb 81f 81f
10:50am 7ft 8s 6s 22 27 mph 1016.2mb 81f 80f
9:50am 7.5ft 8s 6s 25 29 mph 1015.5mb 81f 80f
8:50am 7ft 8s 6s 25 29 mph 1015.1mb 81f 80f
7:50am 7ft 7s 5s 22 27 mph 1014.8mb 81f 80f
6:50am 6ft 7s 5s 22 29 mph 1014.9mb 81f 80f
5:50am 6ft 7s 5s 22 29 mph 1015.1mb 81f 80f
4:50am 7ft 7s 5s 22 25 mph 1015.8mb 81f 80f
3:50am 6.5ft 7s 5s 20 25 mph 1016.4mb 81f 80f
2:50am 6ft 7s 5s 20 25 mph 1016.9mb 81f 80f
1:50am 6ft 7s 5s 20 25 mph 1017.3mb 81f 81f
12:50am 6ft 7s 5s 22 27 mph 1016.9mb 81f 81f
Thu 07/24 11:50pm 6ft 7s 5s 20 22 mph 1016.3mb 81f 81f
10:50pm 6.5ft 7s 5s 20 25 mph 1015.7mb 81f 81f
9:50pm 6ft 8s 5s 22 27 mph 1015.2mb 81f 81f
8:50pm 6ft 8s 5s 20 25 mph 1014.7mb 81f 81f
7:50pm 6ft 8s 5s 18 22 mph 1014.6mb 81f 81f
6:50pm 6ft 6s 5s 20 22 mph 1014.5mb 81f 81f
5:50pm 6ft 7s 5s 22 25 mph 1014.9mb 81f 81f
4:50pm 6ft 7s 5s 22 27 mph 1015.5mb 81f 81f
3:50pm 6ft 7s 5s 22 27 mph 1016.3mb 81f 80f
2:50pm 6ft 8s 5s 20 25 mph 1016.7mb 81f 80f
1:50pm 6ft 8s 5s 22 25 mph 1016.7mb 81f 80f
12:50pm 6ft 7s 5s 22 25 mph 1016.9mb 81f 80f
11:50am 6ft 8s 5s 20 25 mph 1016.7mb 81f 80f
10:50am 6ft 8s 6s 18 22 mph 1016.4mb 81f 80f
9:50am 5.5ft 8s 5s 20 22 mph 1015.8mb 81f 80f
8:50am 6ft 8s 5s 20 27 mph 1015.2mb 81f 80f
7:50am 6ft 8s 6s 20 22 mph 1015mb 81f 80f
6:50am 6ft 8s 6s 20 25 mph 1014.8mb 81f 80f
5:50am 6ft 8s 6s 18 22 mph 1015.3mb 81f 80f
4:50am 6ft 7s 6s 20 22 mph 1015.8mb 81f 80f
3:50am 6ft 7s 5s 20 25 mph 1016.5mb 81f 80f
2:50am 6ft 8s 6s 20 25 mph 1017.1mb 81f 80f
1:50am 6ft 9s 6s 22 27 mph 1017.2mb 81f 79f
12:50am 6ft 8s 6s 20 27 mph 1017.1mb 81f 79f
Wed 07/23 11:50pm 6ft 8s 6s 20 25 mph 1016.8mb 81f 78f
10:50pm 6ft 8s 6s 16 25 mph 1016.4mb 81f 80f
9:50pm 6ft 9s 6s 20 22 mph 1015.8mb 81f 79f
8:50pm 6.5ft 8s 6s 20 22 mph 1015.3mb 81f 80f
7:50pm 6.5ft 8s 6s 20 22 mph 1015.1mb 81f 79f
6:50pm 6ft 9s 5s 22 27 mph 1014.9mb 81f 79f
5:50pm 7ft 8s 6s 22 27 mph 1015.1mb 81f 79f
4:50pm 7ft 8s 6s 22 27 mph 1015.8mb 81f 80f
3:50pm 7ft 8s 6s 16 20 mph 1017.1mb 81f 78f
2:50pm 8ft 8s 6s 22 25 mph 1017.2mb 81f 78f
1:50pm 10ft 9s 6s 25 29 mph 1017mb 81f 78f
12:50pm 9ft 9s 6s 22 25 mph 1016.8mb 81f 76f
11:50am 9.5ft 8s 6s 22 27 mph 1016.6mb 81f 79f
10:50am 9.5ft 10s 7s 25 31 mph 1015.8mb 81f 80f
9:50am 9.5ft 9s 6s 20 25 mph 1015.5mb 81f 78f
8:50am 9ft 8s 6s 20 22 mph 1015.2mb 81f 77f
7:50am 8ft 8s 6s 25 29 mph 1014.5mb 81f 75f
6:50am 7.5ft 8s 6s 27 34 mph 1013.8mb 81f 80f
5:50am 7ft 8s 5s 25 29 mph 1014.1mb 81f 80f
4:50am 7.5ft 7s 6s 25 31 mph 1015mb 81f 80f
3:50am 7ft 7s 5s 25 27 mph 1015.3mb 81f 80f
2:50am 7ft 7s 5s 22 27 mph 1016.5mb 81f 80f
1:50am 7ft 7s 5s 22 25 mph 1016.9mb 81f 80f
12:50am 7ft 7s 6s 22 27 mph 1016.9mb 81f 81f
Tue 07/22 11:50pm 7ft 8s 6s 22 25 mph 1016.7mb 81f 81f
10:50pm 7ft 7s 5s 22 25 mph 1016.3mb 81f 81f
9:50pm 6.5ft 7s 5s 22 27 mph 1016.1mb 81f 81f
8:50pm 6ft 8s 5s 22 25 mph 1015.5mb 81f 81f
7:50pm 6ft 7s 5s 22 27 mph 1015.4mb 82f 81f
6:50pm 6ft 7s 5s 22 27 mph 1015.5mb 82f 81f
5:50pm 5.5ft 7s 5s 22 27 mph 1016.4mb 82f 81f
4:50pm 5ft 7s 5s 22 27 mph 1016.6mb 82f 81f
3:50pm 5ft 7s 5s 22 25 mph 1016.9mb 82f 81f
2:50pm 5ft 7s 5s 18 22 mph 1017.5mb 82f 80f
1:50pm 5ft 7s 5s 16 20 mph 1017.7mb 81f 79f
12:50pm 5ft 6s 5s 18 22 mph 1017.7mb 81f 78f
11:50am 5ft 7s 5s 16 20 mph 1017.6mb 81f 80f
10:50am 5ft 7s 5s 18 22 mph 1017.1mb 81f 80f
9:50am 5.5ft 7s 5s 20 25 mph 1016.7mb 81f 80f